This is the latest recevied weather packets stored in our database for station/object SQ8NA-15. If no packets are shown the sender has not sent any weather packets the latest 10 day(s).
| Time | Temp. | Humidity | Pressure | Rain* | Wind** | Luminosity | Snow |
|---|---|---|---|---|---|---|---|
| 1787607901 | 8.89° C | 92% | 984.2 hPa | 0 mm | - | 0 W/m² | - |
| 1787606677 | 9.44° C | 91% | 984 hPa | 0 mm | - | 0 W/m² | - |
| 1787606077 | 9.44° C | 90% | 984 hPa | 0 mm | - | 0 W/m² | - |
| 1787605464 | 10° C | 88% | 984 hPa | 0 mm | - | 0 W/m² | - |
| 1787604238 | 10° C | 84% | 983.9 hPa | 0 mm | - | 0 W/m² | - |
| 1787603627 | 10.56° C | 85% | 983.9 hPa | 0 mm | - | 0 W/m² | - |
| 1787603013 | 10.56° C | 86% | 983.9 hPa | 0 mm | - | 0 W/m² | - |
| 1787601788 | 11.11° C | 82% | 984.1 hPa | 0 mm | - | 0 W/m² | - |
| 1787601188 | 11.11° C | 80% | 984.1 hPa | 0 mm | - | 0 W/m² | - |
| 1787600578 | 11.11° C | 79% | 984 hPa | 0 mm | - | 0 W/m² | - |
| 1787599352 | 11.67° C | 78% | 984.1 hPa | 0 mm | - | 0 W/m² | - |
| 1787598752 | 12.78° C | 74% | 984.2 hPa | 0 mm | - | 0 W/m² | - |
| 1787598138 | 12.22° C | 74% | 984.1 hPa | 0 mm | - | 0 W/m² | - |
| 1787596902 | 13.89° C | 67% | 984.1 hPa | 0 mm | - | 0 W/m² | - |
| 1787596288 | 13.89° C | 68% | 983.9 hPa | 0 mm | - | 0 W/m² | - |
| 1787595678 | 14.44° C | 64% | 983.9 hPa | 0 mm | - | 0 W/m² | - |
| 1787594452 | 16.11° C | 57% | 983.7 hPa | 0 mm | - | 0 W/m² | - |
| 1787593838 | 15.56° C | 58% | 983.6 hPa | 0 mm | - | 0 W/m² | - |
| 1787593228 | 16.11° C | 59% | 983.5 hPa | 0 mm | - | 2 W/m² | - |
| 1787586149 | 20° C | 50% | 983.4 hPa | 0 mm | - | 57 W/m² | - |
| 1787585539 | 20.56° C | 50% | 983.5 hPa | 0 mm | - | 84 W/m² | - |
| 1787584925 | 20.56° C | 45% | 983.6 hPa | 0 mm | - | 179 W/m² | - |
| 1787583714 | 21.11° C | 47% | 983.6 hPa | 0 mm | - | 246 W/m² | - |
| 1787583112 | 21.11° C | 46% | 983.6 hPa | 0 mm | - | 274 W/m² | - |
| 1787582502 | 20.56° C | 49% | 983.7 hPa | 0 mm | - | 309 W/m² | - |
* Rain latest hour (hover to see other rain measurements)
** Current wind speed in m/s (hover to see current wind gust speed)